createdAt,value
2018-09-14T00:00:46.608Z,1016.28
2018-09-14T00:02:39.510Z,1016.29
2018-09-14T00:03:39.324Z,1016.28
2018-09-14T00:05:32.075Z,1016.27
2018-09-14T00:06:32.017Z,1016.25
2018-09-14T00:08:24.792Z,1016.24
2018-09-14T00:09:24.708Z,1016.23
2018-09-14T00:11:17.485Z,1016.22
2018-09-14T00:12:17.412Z,1016.23
2018-09-14T00:14:10.175Z,1016.18
2018-09-14T00:15:10.110Z,1016.18
2018-09-14T00:17:02.887Z,1016.16
2018-09-14T00:18:02.814Z,1016.11
2018-09-14T00:19:55.598Z,1016.11
2018-09-14T00:20:55.525Z,1016.11
2018-09-14T00:22:48.341Z,1016.06
2018-09-14T00:23:48.256Z,1016.04
2018-09-14T00:25:41.042Z,1016.07
2018-09-14T00:26:40.975Z,1016.08
2018-09-14T00:28:33.758Z,1016.04
2018-09-14T00:29:33.689Z,1016.11
2018-09-14T00:31:26.449Z,1016.07
2018-09-14T00:32:26.376Z,1016.11
2018-09-14T00:34:19.147Z,1016.10
2018-09-14T00:35:19.075Z,1016.11
2018-09-14T00:37:11.877Z,1016.08
2018-09-14T00:38:11.801Z,1016.09
2018-09-14T00:40:04.583Z,1016.08
2018-09-14T00:41:04.507Z,1016.11
2018-09-14T00:42:57.283Z,1016.05
2018-09-14T00:43:57.201Z,1016.02
2018-09-14T00:45:49.979Z,1016.04
2018-09-14T00:46:49.911Z,1016.03
2018-09-14T00:48:42.733Z,1015.99
2018-09-14T00:49:42.601Z,1016.01
2018-09-14T00:51:35.385Z,1015.99
2018-09-14T00:52:35.306Z,1016.00
2018-09-14T00:54:28.087Z,1015.98
2018-09-14T00:55:27.997Z,1015.99
2018-09-14T00:57:20.763Z,1015.95
2018-09-14T00:58:20.692Z,1015.98
2018-09-14T01:00:13.442Z,1016.00
2018-09-14T01:01:13.384Z,1016.00
2018-09-14T01:03:06.151Z,1016.01
2018-09-14T01:04:06.078Z,1016.00
2018-09-14T01:05:58.841Z,1016.08
2018-09-14T01:06:58.772Z,1016.03
2018-09-14T01:08:51.544Z,1016.02
2018-09-14T01:09:51.474Z,1016.02
2018-09-14T01:11:44.225Z,1016.04
2018-09-14T01:12:44.147Z,1016.02
2018-09-14T01:14:36.923Z,1016.04
2018-09-14T01:15:36.850Z,1016.05
2018-09-14T01:17:29.628Z,1016.01
2018-09-14T01:18:29.541Z,1016.00
2018-09-14T01:20:22.379Z,1016.01
2018-09-14T01:21:22.263Z,1016.05
2018-09-14T01:23:15.040Z,1016.03
2018-09-14T01:24:14.965Z,1016.06
2018-09-14T01:26:07.723Z,1016.03
2018-09-14T01:27:07.658Z,1016.06
2018-09-14T01:29:00.429Z,1016.04
2018-09-14T01:30:00.359Z,1016.06
2018-09-14T01:31:53.119Z,1016.10
2018-09-14T01:32:53.057Z,1016.08
2018-09-14T01:34:45.837Z,1016.06
2018-09-14T01:35:45.743Z,1016.08
2018-09-14T01:37:38.533Z,1016.08
2018-09-14T01:38:38.449Z,1016.06
2018-09-14T01:40:31.201Z,1016.05
2018-09-14T01:41:31.139Z,1016.07
2018-09-14T01:43:23.936Z,1016.05
2018-09-14T01:44:23.851Z,1016.03
2018-09-14T01:46:16.618Z,1016.03
2018-09-14T01:47:16.544Z,1016.05
2018-09-14T01:49:09.333Z,1016.04
2018-09-14T01:50:09.249Z,1015.99
2018-09-14T01:52:02.035Z,1015.93
2018-09-14T01:53:01.975Z,1015.98
2018-09-14T01:54:54.741Z,1016.00
2018-09-14T01:55:54.681Z,1015.99
2018-09-14T01:57:47.449Z,1015.97
2018-09-14T01:58:47.375Z,1015.99
2018-09-14T02:00:40.149Z,1015.95
2018-09-14T02:01:40.081Z,1015.95
2018-09-14T02:03:32.924Z,1015.96
2018-09-14T02:04:32.777Z,1015.96
2018-09-14T02:06:25.533Z,1015.93
2018-09-14T02:07:25.473Z,1015.95
2018-09-14T02:09:18.244Z,1015.90
2018-09-14T02:10:18.177Z,1015.90
2018-09-14T02:12:10.928Z,1015.90
2018-09-14T02:13:10.863Z,1015.90
2018-09-14T02:15:03.644Z,1015.90
2018-09-14T02:16:03.574Z,1015.95
2018-09-14T02:17:56.339Z,1015.90
2018-09-14T02:18:56.268Z,1015.92
2018-09-14T02:20:49.047Z,1015.89
2018-09-14T02:21:48.978Z,1015.89
2018-09-14T02:23:41.741Z,1015.88
2018-09-14T02:24:41.662Z,1015.86
2018-09-14T02:26:34.423Z,1015.89
2018-09-14T02:27:34.364Z,1015.91
2018-09-14T02:29:27.156Z,1015.93
2018-09-14T02:30:27.072Z,1015.92
2018-09-14T02:32:19.826Z,1015.91
2018-09-14T02:33:19.763Z,1015.93
2018-09-14T02:35:12.535Z,1015.92
2018-09-14T02:36:12.465Z,1015.95
2018-09-14T02:38:05.239Z,1015.97
2018-09-14T02:39:05.175Z,1015.95
2018-09-14T02:40:57.953Z,1015.93
2018-09-14T02:41:57.882Z,1015.93
2018-09-14T02:43:50.671Z,1015.91
2018-09-14T02:44:50.596Z,1015.87
2018-09-14T02:46:43.363Z,1015.87
2018-09-14T02:47:43.318Z,1015.86
2018-09-14T02:49:36.067Z,1015.87
2018-09-14T02:50:35.990Z,1015.81
2018-09-14T02:52:28.766Z,1015.80
2018-09-14T02:53:28.692Z,1015.82
2018-09-14T02:55:21.472Z,1015.83
2018-09-14T02:56:21.392Z,1015.76
2018-09-14T02:58:14.161Z,1015.79
2018-09-14T02:59:14.095Z,1015.76
2018-09-14T03:01:06.855Z,1015.77
2018-09-14T03:02:06.782Z,1015.78
2018-09-14T03:03:59.588Z,1015.76
2018-09-14T03:04:59.503Z,1015.76
2018-09-14T03:06:52.284Z,1015.75
2018-09-14T03:07:52.222Z,1015.73
2018-09-14T03:09:45.013Z,1015.73
2018-09-14T03:10:44.914Z,1015.70
2018-09-14T03:12:37.671Z,1015.66
2018-09-14T03:13:37.612Z,1015.64
2018-09-14T03:15:30.382Z,1015.68
2018-09-14T03:16:30.306Z,1015.66
2018-09-14T03:18:23.064Z,1015.65
2018-09-14T03:19:23.024Z,1015.64
2018-09-14T03:21:15.750Z,1015.63
2018-09-14T03:22:15.689Z,1015.63
2018-09-14T03:24:08.459Z,1015.59
2018-09-14T03:25:08.381Z,1015.63
2018-09-14T03:27:01.143Z,1015.63
2018-09-14T03:28:01.151Z,1015.65
2018-09-14T03:29:53.881Z,1015.68
2018-09-14T03:30:53.769Z,1015.70
2018-09-14T03:32:46.541Z,1015.71
2018-09-14T03:33:46.478Z,1015.71
2018-09-14T03:35:39.249Z,1015.74
2018-09-14T03:36:39.168Z,1015.76
2018-09-14T03:38:31.948Z,1015.74
2018-09-14T03:39:31.861Z,1015.73
2018-09-14T03:41:24.624Z,1015.78
2018-09-14T03:42:24.561Z,1015.74
2018-09-14T03:44:17.350Z,1015.77
2018-09-14T03:45:17.284Z,1015.77
2018-09-14T03:47:10.078Z,1015.83
2018-09-14T03:48:10.012Z,1015.80
2018-09-14T03:50:02.792Z,1015.80
2018-09-14T03:51:02.714Z,1015.84
2018-09-14T03:52:55.489Z,1015.84
2018-09-14T03:53:55.424Z,1015.81
2018-09-14T03:55:48.184Z,1015.88
2018-09-14T03:56:48.104Z,1015.86
2018-09-14T03:58:40.896Z,1015.80
2018-09-14T03:59:40.811Z,1015.83
2018-09-14T04:01:33.637Z,1015.85
2018-09-14T04:02:33.561Z,1015.85
2018-09-14T04:04:26.391Z,1015.83
2018-09-14T04:05:26.313Z,1015.86
2018-09-14T04:07:19.093Z,1015.87
2018-09-14T04:08:19.036Z,1015.89
2018-09-14T04:10:11.790Z,1015.87
2018-09-14T04:11:11.720Z,1015.88
2018-09-14T04:13:04.545Z,1015.87
2018-09-14T04:14:04.463Z,1015.87
2018-09-14T04:15:57.300Z,1015.90
2018-09-14T04:16:57.213Z,1015.90
2018-09-14T04:18:50.043Z,1015.85
2018-09-14T04:19:49.973Z,1015.87
2018-09-14T04:21:42.746Z,1015.83
2018-09-14T04:22:42.681Z,1015.85
2018-09-14T04:24:35.449Z,1015.84
2018-09-14T04:25:35.376Z,1015.81
2018-09-14T04:27:28.157Z,1015.82
2018-09-14T04:28:28.091Z,1015.80
2018-09-14T04:30:20.855Z,1015.85
2018-09-14T04:31:20.784Z,1015.84
2018-09-14T04:33:13.546Z,1015.84
2018-09-14T04:34:13.474Z,1015.85
2018-09-14T04:36:06.249Z,1015.86
2018-09-14T04:37:06.177Z,1015.86
2018-09-14T04:38:58.966Z,1015.86
2018-09-14T04:39:58.934Z,1015.89
2018-09-14T04:41:51.634Z,1015.88
2018-09-14T04:42:51.578Z,1015.86
2018-09-14T04:44:44.360Z,1015.90
2018-09-14T04:45:44.267Z,1015.87
2018-09-14T04:47:37.034Z,1015.85
2018-09-14T04:48:36.967Z,1015.82
2018-09-14T04:50:29.784Z,1015.84
2018-09-14T04:51:29.816Z,1015.84
2018-09-14T04:53:22.506Z,1015.85
2018-09-14T04:54:22.441Z,1015.85
2018-09-14T04:56:15.268Z,1015.90
2018-09-14T04:57:15.224Z,1015.86
2018-09-14T04:59:07.992Z,1015.88
2018-09-14T05:00:07.887Z,1015.89
2018-09-14T05:02:00.695Z,1015.89
2018-09-14T05:03:00.608Z,1015.91
2018-09-14T05:04:53.435Z,1015.88
2018-09-14T05:05:53.357Z,1015.90
2018-09-14T05:07:46.183Z,1015.91
2018-09-14T05:08:46.116Z,1015.93
2018-09-14T05:10:39.007Z,1015.94
2018-09-14T05:11:38.807Z,1015.97
2018-09-14T05:13:31.573Z,1015.97
2018-09-14T05:14:31.508Z,1015.96
2018-09-14T05:16:24.331Z,1015.97
2018-09-14T05:17:24.260Z,1016.01
2018-09-14T05:19:17.069Z,1016.00
2018-09-14T05:20:17.016Z,1016.03
2018-09-14T05:22:09.822Z,1016.04
2018-09-14T05:23:09.744Z,1015.98
2018-09-14T05:25:02.562Z,1016.00
2018-09-14T05:26:02.430Z,1016.01
2018-09-14T05:27:55.203Z,1015.99
2018-09-14T05:28:55.142Z,1016.00
2018-09-14T05:30:47.903Z,1016.04
2018-09-14T05:31:47.835Z,1016.05
2018-09-14T05:33:40.602Z,1016.05
2018-09-14T05:34:40.541Z,1016.06
2018-09-14T05:36:33.316Z,1016.06
2018-09-14T05:37:33.241Z,1016.08
2018-09-14T05:39:26.004Z,1016.10
2018-09-14T05:40:25.938Z,1016.14
2018-09-14T05:42:18.707Z,1016.16
2018-09-14T05:43:18.633Z,1016.15
2018-09-14T05:45:11.409Z,1016.18
2018-09-14T05:46:11.334Z,1016.16
2018-09-14T05:48:04.092Z,1016.13
2018-09-14T05:49:04.028Z,1016.14
2018-09-14T05:50:56.807Z,1016.16
2018-09-14T05:51:56.721Z,1016.14
2018-09-14T05:53:49.504Z,1016.14
2018-09-14T05:54:49.427Z,1016.13
2018-09-14T05:56:42.202Z,1016.16
2018-09-14T05:57:42.118Z,1016.16
2018-09-14T05:59:34.877Z,1016.16
2018-09-14T06:00:34.819Z,1016.14
2018-09-14T06:02:27.592Z,1016.14
2018-09-14T06:03:27.509Z,1016.14
2018-09-14T06:05:20.289Z,1016.19
2018-09-14T06:06:20.214Z,1016.18
2018-09-14T06:08:13.005Z,1016.20
2018-09-14T06:09:12.942Z,1016.21
2018-09-14T06:11:05.711Z,1016.26
2018-09-14T06:12:05.639Z,1016.28
2018-09-14T06:13:58.439Z,1016.31
2018-09-14T06:14:58.368Z,1016.31
2018-09-14T06:16:50.287Z,1016.36
2018-09-14T06:17:50.224Z,1016.42
2018-09-14T06:19:42.987Z,1016.48
2018-09-14T06:20:43.017Z,1016.46
2018-09-14T06:22:35.767Z,1016.51
2018-09-14T06:23:35.614Z,1016.46
2018-09-14T06:25:28.388Z,1016.49
2018-09-14T06:26:28.317Z,1016.48
2018-09-14T06:28:21.089Z,1016.49
2018-09-14T06:29:21.026Z,1016.47
2018-09-14T06:31:13.807Z,1016.50
2018-09-14T06:32:13.729Z,1016.50
2018-09-14T06:34:06.491Z,1016.50
2018-09-14T06:35:06.459Z,1016.52
2018-09-14T06:36:59.216Z,1016.53
2018-09-14T06:37:59.145Z,1016.51
2018-09-14T06:39:51.944Z,1016.51
2018-09-14T06:40:51.830Z,1016.48
2018-09-14T06:42:44.638Z,1016.53
2018-09-14T06:43:44.564Z,1016.55
2018-09-14T06:45:37.339Z,1016.51
2018-09-14T06:46:37.268Z,1016.54
2018-09-14T06:48:30.035Z,1016.54
2018-09-14T06:49:29.963Z,1016.58
2018-09-14T06:51:22.736Z,1016.60
2018-09-14T06:52:22.669Z,1016.63
2018-09-14T06:54:15.440Z,1016.59
2018-09-14T06:55:15.363Z,1016.59
2018-09-14T06:57:08.148Z,1016.60
2018-09-14T06:58:08.071Z,1016.60
2018-09-14T07:00:00.864Z,1016.66
2018-09-14T07:01:00.767Z,1016.65
2018-09-14T07:02:53.549Z,1016.63
2018-09-14T07:03:53.469Z,1016.63
2018-09-14T07:05:46.265Z,1016.64
2018-09-14T07:06:46.173Z,1016.65
2018-09-14T07:08:38.962Z,1016.62
2018-09-14T07:09:38.873Z,1016.65
2018-09-14T07:11:31.712Z,1016.68
2018-09-14T07:12:31.575Z,1016.63
2018-09-14T07:14:24.346Z,1016.67
2018-09-14T07:15:24.287Z,1016.66
2018-09-14T07:17:17.060Z,1016.68
2018-09-14T07:18:16.978Z,1016.69
2018-09-14T07:20:09.748Z,1016.68
2018-09-14T07:21:09.682Z,1016.70
2018-09-14T07:23:02.472Z,1016.72
2018-09-14T07:24:02.480Z,1016.73
2018-09-14T07:25:55.193Z,1016.75
2018-09-14T07:26:55.116Z,1016.73
2018-09-14T07:28:47.973Z,1016.76
2018-09-14T07:29:47.808Z,1016.77
2018-09-14T07:31:40.635Z,1016.78
2018-09-14T07:32:40.501Z,1016.74
2018-09-14T07:34:33.263Z,1016.72
2018-09-14T07:35:33.201Z,1016.76
2018-09-14T07:37:25.971Z,1016.76
2018-09-14T07:38:25.901Z,1016.74
2018-09-14T07:40:18.666Z,1016.81
2018-09-14T07:41:18.600Z,1016.78
2018-09-14T07:43:11.374Z,1016.82
2018-09-14T07:44:11.306Z,1016.80
2018-09-14T07:46:04.069Z,1016.83
2018-09-14T07:47:04.004Z,1016.80
2018-09-14T07:48:56.807Z,1016.81
2018-09-14T07:49:56.720Z,1016.81
2018-09-14T07:51:49.489Z,1016.81
2018-09-14T07:52:49.417Z,1016.83
2018-09-14T07:54:42.196Z,1016.84
2018-09-14T07:55:42.122Z,1016.85
2018-09-14T07:57:34.924Z,1016.86
2018-09-14T07:58:34.847Z,1016.86
2018-09-14T08:00:27.607Z,1016.88
2018-09-14T08:01:27.548Z,1016.91
2018-09-14T08:03:20.337Z,1016.86
2018-09-14T08:04:20.265Z,1016.88
2018-09-14T08:06:13.073Z,1016.89
2018-09-14T08:07:12.970Z,1016.89
2018-09-14T08:09:05.725Z,1016.89
2018-09-14T08:10:05.664Z,1016.91
2018-09-14T08:11:58.466Z,1016.94
2018-09-14T08:12:58.366Z,1016.97
2018-09-14T08:14:51.126Z,1016.97
2018-09-14T08:15:51.065Z,1016.99
2018-09-14T08:17:43.872Z,1016.98
2018-09-14T08:18:43.795Z,1017.02
2018-09-14T08:20:36.562Z,1016.98
2018-09-14T08:21:36.600Z,1017.02
2018-09-14T08:23:29.298Z,1017.02
2018-09-14T08:24:29.222Z,1017.02
2018-09-14T08:26:22.021Z,1016.97
2018-09-14T08:27:21.945Z,1017.01
2018-09-14T08:29:14.713Z,1017.04
2018-09-14T08:30:14.654Z,1017.02
2018-09-14T08:32:07.440Z,1017.09
2018-09-14T08:33:07.366Z,1017.08
2018-09-14T08:35:00.235Z,1017.08
2018-09-14T08:36:00.153Z,1017.08
2018-09-14T08:37:52.949Z,1017.09
2018-09-14T08:38:52.872Z,1017.09
2018-09-14T08:40:45.656Z,1017.10
2018-09-14T08:41:45.597Z,1017.12
2018-09-14T08:43:38.385Z,1017.11
2018-09-14T08:44:38.356Z,1017.13
2018-09-14T08:46:31.092Z,1017.16
2018-09-14T08:47:31.052Z,1017.18
2018-09-14T08:49:23.824Z,1017.15
2018-09-14T08:50:23.775Z,1017.17
2018-09-14T08:52:16.570Z,1017.19
2018-09-14T08:53:16.505Z,1017.13
2018-09-14T08:55:09.266Z,1017.19
2018-09-14T08:56:09.207Z,1017.16
2018-09-14T08:58:02.021Z,1017.18
2018-09-14T08:59:01.925Z,1017.20
2018-09-14T09:00:54.836Z,1017.16
2018-09-14T09:01:54.654Z,1017.17
2018-09-14T09:03:47.487Z,1017.14
2018-09-14T09:04:47.362Z,1017.23
2018-09-14T09:06:40.154Z,1017.18
2018-09-14T09:07:40.096Z,1017.21
2018-09-14T09:09:32.868Z,1017.24
2018-09-14T09:10:32.806Z,1017.23
2018-09-14T09:12:25.621Z,1017.22
2018-09-14T09:13:25.553Z,1017.30
2018-09-14T09:15:18.372Z,1017.29
2018-09-14T09:16:18.314Z,1017.29
2018-09-14T09:18:11.125Z,1017.26
2018-09-14T09:19:11.104Z,1017.26
2018-09-14T09:21:03.870Z,1017.27
2018-09-14T09:22:03.807Z,1017.27
2018-09-14T09:23:56.596Z,1017.23
2018-09-14T09:24:56.528Z,1017.24
2018-09-14T09:26:49.322Z,1017.20
2018-09-14T09:27:49.259Z,1017.25
2018-09-14T09:29:42.048Z,1017.19
2018-09-14T09:30:41.993Z,1017.21
2018-09-14T09:32:34.779Z,1017.18
2018-09-14T09:33:34.706Z,1017.18
2018-09-14T09:35:27.597Z,1017.16
2018-09-14T09:36:27.555Z,1017.16
2018-09-14T09:38:20.355Z,1017.14
2018-09-14T09:39:20.258Z,1017.09
2018-09-14T09:41:13.137Z,1017.07
2018-09-14T09:42:12.972Z,1017.06
2018-09-14T09:44:05.829Z,1017.05
2018-09-14T09:45:05.707Z,1017.07
2018-09-14T09:46:58.488Z,1017.07
2018-09-14T09:47:58.433Z,1017.06
2018-09-14T09:49:51.325Z,1017.07
2018-09-14T09:50:51.333Z,1017.08
2018-09-14T09:52:44.031Z,1017.04
2018-09-14T09:53:43.949Z,1017.04
2018-09-14T09:55:36.725Z,1017.00
2018-09-14T09:56:36.719Z,1016.94
2018-09-14T09:58:29.474Z,1016.99
2018-09-14T09:59:29.398Z,1017.00
2018-09-14T10:01:22.161Z,1017.03
2018-09-14T10:02:22.101Z,1017.03
2018-09-14T10:04:14.892Z,1017.02
2018-09-14T10:05:14.809Z,1017.02
2018-09-14T10:07:07.592Z,1016.95
2018-09-14T10:08:07.540Z,1016.97
2018-09-14T10:10:00.322Z,1016.92
2018-09-14T10:11:00.250Z,1016.93
2018-09-14T10:12:53.053Z,1016.89
2018-09-14T10:13:52.977Z,1016.89
2018-09-14T10:15:45.756Z,1016.91
2018-09-14T10:16:45.696Z,1016.93
2018-09-14T10:18:38.471Z,1016.90
2018-09-14T10:19:38.399Z,1016.92
2018-09-14T10:21:31.172Z,1016.90
2018-09-14T10:22:31.115Z,1016.94
2018-09-14T10:24:23.890Z,1016.91
2018-09-14T10:25:23.813Z,1016.92
2018-09-14T10:27:16.604Z,1016.88
2018-09-14T10:28:16.551Z,1016.87
2018-09-14T10:30:09.356Z,1016.89
2018-09-14T10:31:09.269Z,1016.92
2018-09-14T10:33:02.070Z,1016.90
2018-09-14T10:34:02.094Z,1016.89
2018-09-14T10:35:54.771Z,1016.90
2018-09-14T10:36:54.746Z,1016.89
2018-09-14T10:38:47.501Z,1016.88
2018-09-14T10:39:47.426Z,1016.89
2018-09-14T10:41:40.198Z,1016.84
2018-09-14T10:42:40.150Z,1016.85
2018-09-14T10:44:32.914Z,1016.88
2018-09-14T10:45:32.855Z,1016.85
2018-09-14T10:47:25.611Z,1016.85
2018-09-14T10:48:25.555Z,1016.83
2018-09-14T10:50:18.347Z,1016.85
2018-09-14T10:51:18.285Z,1016.86
2018-09-14T10:53:11.073Z,1016.83
2018-09-14T10:54:11.003Z,1016.83
2018-09-14T10:56:03.761Z,1016.85
2018-09-14T10:57:03.699Z,1016.81
2018-09-14T10:58:56.518Z,1016.83
2018-09-14T10:59:56.450Z,1016.80
2018-09-14T11:01:49.220Z,1016.81
2018-09-14T11:02:49.157Z,1016.76
2018-09-14T11:04:41.945Z,1016.77
2018-09-14T11:05:41.878Z,1016.74
2018-09-14T11:07:34.648Z,1016.71
2018-09-14T11:08:34.586Z,1016.74
2018-09-14T11:10:27.410Z,1016.75
2018-09-14T11:11:27.339Z,1016.73
2018-09-14T11:13:20.128Z,1016.71
2018-09-14T11:14:20.058Z,1016.71
2018-09-14T11:16:12.833Z,1016.72
2018-09-14T11:17:12.775Z,1016.68
2018-09-14T11:19:05.564Z,1016.67
2018-09-14T11:20:05.494Z,1016.68
2018-09-14T11:21:58.300Z,1016.64
2018-09-14T11:22:58.236Z,1016.63
2018-09-14T11:24:51.255Z,1016.63
2018-09-14T11:25:50.958Z,1016.64
2018-09-14T11:27:43.779Z,1016.62
2018-09-14T11:28:43.674Z,1016.60
2018-09-14T11:30:36.465Z,1016.58
2018-09-14T11:31:36.397Z,1016.63
2018-09-14T11:33:29.214Z,1016.60
2018-09-14T11:34:29.151Z,1016.61
2018-09-14T11:36:21.950Z,1016.64
2018-09-14T11:37:21.925Z,1016.65
2018-09-14T11:39:14.704Z,1016.62
2018-09-14T11:40:14.605Z,1016.62
2018-09-14T11:42:07.384Z,1016.61
2018-09-14T11:43:07.326Z,1016.61
2018-09-14T11:45:00.102Z,1016.55
2018-09-14T11:46:00.082Z,1016.52
2018-09-14T11:47:52.804Z,1016.53
2018-09-14T11:48:52.740Z,1016.52
2018-09-14T11:50:45.584Z,1016.53
2018-09-14T11:51:45.456Z,1016.50
2018-09-14T11:53:38.261Z,1016.51
2018-09-14T11:54:38.187Z,1016.48
2018-09-14T11:56:31.007Z,1016.47
2018-09-14T11:57:30.958Z,1016.47
2018-09-14T11:59:23.751Z,1016.41
2018-09-14T12:00:23.692Z,1016.44
2018-09-14T12:02:16.508Z,1016.40
2018-09-14T12:03:16.440Z,1016.41
2018-09-14T12:05:09.252Z,1016.42
2018-09-14T12:06:09.192Z,1016.43
2018-09-14T12:08:01.980Z,1016.34
2018-09-14T12:09:01.920Z,1016.40
2018-09-14T12:10:54.690Z,1016.35
2018-09-14T12:11:54.613Z,1016.31
2018-09-14T12:13:47.460Z,1016.29
2018-09-14T12:14:47.340Z,1016.31
2018-09-14T12:16:40.140Z,1016.30
2018-09-14T12:17:40.080Z,1016.29
2018-09-14T12:19:32.853Z,1016.27
2018-09-14T12:20:32.788Z,1016.27
2018-09-14T12:22:25.643Z,1016.26
2018-09-14T12:23:25.498Z,1016.24
2018-09-14T12:25:18.300Z,1016.28
2018-09-14T12:26:18.215Z,1016.27
2018-09-14T12:28:10.992Z,1016.25
2018-09-14T12:29:10.925Z,1016.26
2018-09-14T12:31:03.697Z,1016.28
2018-09-14T12:32:03.624Z,1016.25
2018-09-14T12:33:56.449Z,1016.30
2018-09-14T12:34:56.363Z,1016.30
2018-09-14T12:36:49.136Z,1016.26
2018-09-14T12:37:49.075Z,1016.29
2018-09-14T12:39:41.845Z,1016.33
2018-09-14T12:40:41.768Z,1016.29
2018-09-14T12:42:34.541Z,1016.28
2018-09-14T12:43:34.474Z,1016.30
2018-09-14T12:45:27.247Z,1016.33
2018-09-14T12:46:27.186Z,1016.29
2018-09-14T12:48:19.944Z,1016.25
2018-09-14T12:49:19.881Z,1016.23
2018-09-14T12:51:12.661Z,1016.24
2018-09-14T12:52:12.594Z,1016.20
2018-09-14T12:54:05.367Z,1016.21
2018-09-14T12:55:05.311Z,1016.16
2018-09-14T12:56:58.097Z,1016.11
2018-09-14T12:57:58.023Z,1016.12
2018-09-14T12:59:50.988Z,1016.07
2018-09-14T13:00:50.919Z,1016.10
2018-09-14T13:02:43.678Z,1016.08
2018-09-14T13:03:43.624Z,1016.06
2018-09-14T13:05:36.398Z,1016.06
2018-09-14T13:06:36.357Z,1016.08
2018-09-14T13:08:29.093Z,1016.03
2018-09-14T13:09:29.032Z,1016.06
2018-09-14T13:11:21.813Z,1016.00
2018-09-14T13:12:21.747Z,1015.99
2018-09-14T13:14:14.527Z,1016.02
2018-09-14T13:15:14.453Z,1015.97
2018-09-14T13:17:07.246Z,1015.93
2018-09-14T13:18:07.177Z,1015.98
2018-09-14T13:19:59.960Z,1015.92
2018-09-14T13:20:59.893Z,1015.94
2018-09-14T13:22:52.644Z,1015.92
2018-09-14T13:23:52.591Z,1015.94
2018-09-14T13:25:45.483Z,1015.94
2018-09-14T13:26:45.290Z,1015.94
2018-09-14T13:28:38.092Z,1015.94
2018-09-14T13:29:38.022Z,1015.91
2018-09-14T13:31:30.816Z,1015.94
2018-09-14T13:32:30.743Z,1015.88
2018-09-14T13:34:23.502Z,1015.88
2018-09-14T13:35:23.443Z,1015.88
2018-09-14T13:37:16.243Z,1015.90
2018-09-14T13:38:16.184Z,1015.90
2018-09-14T13:40:09.020Z,1015.83
2018-09-14T13:41:08.899Z,1015.85
2018-09-14T13:43:01.652Z,1015.92
2018-09-14T13:44:01.590Z,1015.83
2018-09-14T13:45:54.409Z,1015.79
2018-09-14T13:46:54.335Z,1015.80
2018-09-14T13:48:47.135Z,1015.80
2018-09-14T13:49:47.067Z,1015.83
2018-09-14T13:51:39.846Z,1015.74
2018-09-14T13:52:39.819Z,1015.73
2018-09-14T13:54:32.551Z,1015.73
2018-09-14T13:55:32.489Z,1015.70
2018-09-14T13:57:25.284Z,1015.69
2018-09-14T13:58:25.212Z,1015.73
2018-09-14T14:00:17.990Z,1015.71
2018-09-14T14:01:17.960Z,1015.68
2018-09-14T14:03:10.685Z,1015.66
2018-09-14T14:04:10.625Z,1015.69
2018-09-14T14:06:03.420Z,1015.67
2018-09-14T14:07:03.345Z,1015.67
2018-09-14T14:08:56.133Z,1015.68
2018-09-14T14:09:56.091Z,1015.65
2018-09-14T14:11:48.840Z,1015.65
2018-09-14T14:12:48.764Z,1015.64
2018-09-14T14:14:41.541Z,1015.64
2018-09-14T14:15:41.493Z,1015.63
2018-09-14T14:17:34.326Z,1015.60
2018-09-14T14:18:34.188Z,1015.61
2018-09-14T14:20:26.987Z,1015.59
2018-09-14T14:21:26.940Z,1015.60
2018-09-14T14:23:19.716Z,1015.59
2018-09-14T14:24:19.645Z,1015.58
2018-09-14T14:26:12.426Z,1015.54
2018-09-14T14:27:12.348Z,1015.51
2018-09-14T14:29:05.135Z,1015.48
2018-09-14T14:30:05.064Z,1015.46
2018-09-14T14:31:57.836Z,1015.44
2018-09-14T14:32:57.771Z,1015.46
2018-09-14T14:34:50.530Z,1015.43
2018-09-14T14:35:50.483Z,1015.41
2018-09-14T14:37:43.295Z,1015.42
2018-09-14T14:38:43.212Z,1015.43
2018-09-14T14:40:36.010Z,1015.44
2018-09-14T14:41:35.957Z,1015.40
2018-09-14T14:43:28.704Z,1015.39
2018-09-14T14:44:28.638Z,1015.37
2018-09-14T14:46:21.443Z,1015.34
2018-09-14T14:47:21.363Z,1015.35
2018-09-14T14:49:14.136Z,1015.27
2018-09-14T14:50:14.072Z,1015.27
2018-09-14T14:52:06.849Z,1015.29
2018-09-14T14:53:06.779Z,1015.28
2018-09-14T14:54:59.539Z,1015.25
2018-09-14T14:55:59.500Z,1015.23
2018-09-14T14:57:52.286Z,1015.23
2018-09-14T14:58:52.220Z,1015.20
2018-09-14T15:00:45.034Z,1015.21
2018-09-14T15:01:44.964Z,1015.19
2018-09-14T15:03:37.726Z,1015.14
2018-09-14T15:04:37.679Z,1015.16
2018-09-14T15:06:30.459Z,1015.11
2018-09-14T15:07:30.385Z,1015.12
2018-09-14T15:09:23.189Z,1015.10
2018-09-14T15:10:23.109Z,1015.13
2018-09-14T15:12:15.890Z,1015.11
2018-09-14T15:13:15.840Z,1015.10
2018-09-14T15:15:08.594Z,1015.10
2018-09-14T15:16:08.522Z,1015.10
2018-09-14T15:18:01.320Z,1015.07
2018-09-14T15:19:01.255Z,1015.08
2018-09-14T15:20:54.001Z,1015.07
2018-09-14T15:21:53.941Z,1015.09
2018-09-14T15:23:46.740Z,1015.09
2018-09-14T15:24:46.687Z,1015.08
2018-09-14T15:26:39.507Z,1015.06
2018-09-14T15:27:39.441Z,1015.08
2018-09-14T15:29:32.298Z,1015.02
2018-09-14T15:30:32.237Z,1015.04
2018-09-14T15:32:25.009Z,1015.03
2018-09-14T15:33:24.940Z,1015.00
2018-09-14T15:35:17.729Z,1015.04
2018-09-14T15:36:17.669Z,1014.99
2018-09-14T15:38:10.456Z,1015.01
2018-09-14T15:39:10.384Z,1014.99
2018-09-14T15:41:03.164Z,1014.97
2018-09-14T15:42:03.093Z,1014.98
2018-09-14T15:43:55.876Z,1014.97
2018-09-14T15:44:55.817Z,1014.96
2018-09-14T15:46:48.588Z,1014.93
2018-09-14T15:47:48.513Z,1014.91
2018-09-14T15:49:41.314Z,1014.94
2018-09-14T15:50:41.250Z,1014.90
2018-09-14T15:52:34.062Z,1014.91
2018-09-14T15:53:33.989Z,1014.89
2018-09-14T15:55:26.813Z,1014.86
2018-09-14T15:56:26.744Z,1014.86
2018-09-14T15:58:19.543Z,1014.91
2018-09-14T15:59:19.476Z,1014.85
2018-09-14T16:01:12.252Z,1014.86
2018-09-14T16:02:12.164Z,1014.85
2018-09-14T16:04:04.942Z,1014.83
2018-09-14T16:05:04.896Z,1014.78
2018-09-14T16:06:57.712Z,1014.83
2018-09-14T16:07:57.641Z,1014.80
2018-09-14T16:09:50.430Z,1014.84
2018-09-14T16:10:50.368Z,1014.84
2018-09-14T16:12:43.157Z,1014.81
2018-09-14T16:13:43.170Z,1014.84
2018-09-14T16:15:35.845Z,1014.81
2018-09-14T16:16:35.784Z,1014.86
2018-09-14T16:18:28.645Z,1014.80
2018-09-14T16:19:28.548Z,1014.80
2018-09-14T16:21:21.324Z,1014.86
2018-09-14T16:22:21.267Z,1014.85
2018-09-14T16:24:14.039Z,1014.87
2018-09-14T16:25:14.002Z,1014.90
2018-09-14T16:27:06.761Z,1014.85
2018-09-14T16:28:06.686Z,1014.84
2018-09-14T16:29:59.446Z,1014.83
2018-09-14T16:30:59.385Z,1014.89
2018-09-14T16:32:52.158Z,1014.82
2018-09-14T16:33:52.084Z,1014.85
2018-09-14T16:35:44.887Z,1014.85
2018-09-14T16:36:44.838Z,1014.86
2018-09-14T16:38:37.599Z,1014.83
2018-09-14T16:39:37.529Z,1014.81
2018-09-14T16:41:30.276Z,1014.86
2018-09-14T16:42:30.218Z,1014.85
2018-09-14T16:44:23.002Z,1014.85
2018-09-14T16:45:22.926Z,1014.83
2018-09-14T16:47:15.711Z,1014.86
2018-09-14T16:48:15.636Z,1014.86
2018-09-14T16:50:08.437Z,1014.83
2018-09-14T16:51:08.363Z,1014.82
2018-09-14T16:53:01.131Z,1014.80
2018-09-14T16:54:01.057Z,1014.78
2018-09-14T16:55:53.853Z,1014.82
2018-09-14T16:56:53.791Z,1014.83
2018-09-14T16:58:46.575Z,1014.80
2018-09-14T16:59:46.510Z,1014.85
2018-09-14T17:01:39.281Z,1014.84
2018-09-14T17:02:39.239Z,1014.84
2018-09-14T17:04:31.981Z,1014.83
2018-09-14T17:05:31.913Z,1014.87
2018-09-14T17:07:24.685Z,1014.84
2018-09-14T17:08:24.605Z,1014.85
2018-09-14T17:10:17.372Z,1014.81
2018-09-14T17:11:17.306Z,1014.87
2018-09-14T17:13:10.099Z,1014.84
2018-09-14T17:14:10.027Z,1014.83
2018-09-14T17:16:02.785Z,1014.79
2018-09-14T17:17:02.738Z,1014.78
2018-09-14T17:18:55.514Z,1014.79
2018-09-14T17:19:55.438Z,1014.76
2018-09-14T17:21:48.231Z,1014.76
2018-09-14T17:22:48.161Z,1014.74
2018-09-14T17:24:40.931Z,1014.77